Terminal Aerodrome Forecast
Issued by NWS Newport/Morehead City, NC

Home | Current Version | Previous Version | Text Only | Print | Product List | Glossary On
Versions: 1 2 3 4 5 6 7 8 9 10 11 12 13 14 15 16 17 18 19 20 21 22 23 24
000
FTUS42 KMHX 132300
TAFEWN
TAF
KEWN 132325Z 1400/1424 31004KT 5SM -RA FEW015 BKN035
      TEMPO 1401/1403 3SM TSRA BKN015CB
     FM140600 02003KT 5SM BR OVC007
     FM141300 04009KT P6SM OVC025=

USA.gov is the U.S. government's official web portal to all federal, state and local government web resources and services.